Time;durP1;ratioP1;P1;durP2;ratioP2;P2;SDS_P1;SDS_P2;PMS_P1;PMS_P2;Temp;Humidity;BMP_temperature;BMP_pressure;BME280_temperature;BME280_humidity;BME280_pressure;Samples;Min_cycle;Max_cycle;Signal;HPM_P1;HPM_P2
2023/10/05 00:01:45;;;;;;;35.63;15.65;;;;;;;22.02;52.43;100588.27;1761235;81;21349;-80
2023/10/05 00:04:47;;;;;;;35.98;15.20;;;;;;;21.81;52.95;100592.55;1762044;81;21681;-80
2023/10/05 00:07:54;;;;;;;33.38;15.08;;;;;;;21.80;53.10;100600.61;1760823;81;21916;-80
2023/10/05 00:11:00;;;;;;;40.45;15.75;;;;;;;21.94;52.57;100605.67;1762650;81;21317;-80
2023/10/05 00:14:10;;;;;;;33.25;15.60;;;;;;;22.14;52.03;100613.66;1762702;81;21923;-81
2023/10/05 00:17:16;;;;;;;41.88;13.98;;;;;;;22.03;52.26;100616.44;1762305;81;21969;-80
2023/10/05 00:20:25;;;;;;;44.65;15.98;;;;;;;22.03;52.21;100622.02;1761583;81;21675;-80
2023/10/05 00:23:29;;;;;;;38.40;15.80;;;;;;;21.97;52.37;100629.38;1761272;81;21341;-80
2023/10/05 00:26:34;;;;;;;30.27;15.48;;;;;;;22.04;52.14;100623.70;1763295;81;21274;-80
2023/10/05 00:29:47;;;;;;;45.23;14.98;;;;;;;22.06;52.05;100621.50;1763118;81;21289;-80
2023/10/05 00:32:57;;;;;;;35.00;14.78;;;;;;;22.17;51.61;100618.75;1762539;81;21675;-80
2023/10/05 00:35:59;;;;;;;43.85;14.70;;;;;;;22.19;51.37;100610.98;1762530;81;21306;-80
2023/10/05 00:39:08;;;;;;;31.35;14.45;;;;;;;22.31;51.07;100601.21;1762231;81;21334;-80
2023/10/05 00:42:15;;;;;;;34.23;14.05;;;;;;;22.15;51.39;100594.45;1771672;80;22551;-80
2023/10/05 00:45:27;;;;;;;30.57;14.73;;;;;;;22.17;51.33;100600.64;1776587;80;21304;-80
2023/10/05 00:48:35;;;;;;;38.88;14.30;;;;;;;22.21;51.24;100598.22;1775299;80;21289;-80
2023/10/05 00:51:41;;;;;;;36.40;15.40;;;;;;;22.22;51.12;100600.45;1774502;79;21339;-80
2023/10/05 00:54:51;;;;;;;36.42;15.03;;;;;;;22.17;51.25;100589.50;1775270;80;21343;-80
2023/10/05 00:57:55;;;;;;;33.42;13.83;;;;;;;22.14;51.30;100577.44;1777369;80;21336;-80
2023/10/05 01:01:05;;;;;;;31.02;14.03;;;;;;;22.27;51.01;100588.86;1799024;79;21339;-80
2023/10/05 01:07:27;;;;;;;30.35;14.38;;;;;;;22.31;50.78;100583.09;1732956;82;21331;-81
2023/10/05 01:10:40;;;;;;;42.00;15.48;;;;;;;22.23;50.85;100563.98;1720702;83;21697;-80
2023/10/05 01:13:41;;;;;;;42.03;15.08;;;;;;;22.16;50.98;100565.52;1721895;83;21312;-79
2023/10/05 01:16:48;;;;;;;35.28;15.48;;;;;;;22.09;50.95;100569.50;1721471;83;21350;-80
2023/10/05 01:19:59;;;;;;;42.95;14.95;;;;;;;22.08;51.03;100578.41;1710406;84;21628;-81
2023/10/05 01:23:08;;;;;;;34.45;16.02;;;;;;;22.00;51.17;100579.33;1749742;82;21609;-80
2023/10/05 01:26:14;;;;;;;35.30;15.03;;;;;;;22.03;51.04;100587.20;1738219;82;21394;-80
2023/10/05 01:29:20;;;;;;;41.23;16.07;;;;;;;22.01;51.05;100587.42;1749263;82;21891;-80
2023/10/05 01:32:26;;;;;;;49.85;17.95;;;;;;;22.08;50.87;100590.09;1720532;83;21343;-80
2023/10/05 01:35:33;;;;;;;35.45;16.30;;;;;;;22.01;51.00;100581.85;1720285;83;21342;-80
2023/10/05 01:38:40;;;;;;;46.88;18.12;;;;;;;21.91;51.25;100581.63;1719793;83;21351;-80
2023/10/05 01:41:48;;;;;;;45.65;20.00;;;;;;;21.70;51.73;100583.13;1716552;83;22641;-80
2023/10/05 01:44:53;;;;;;;52.23;19.07;;;;;;;21.69;51.85;100598.14;1702671;83;21313;-80
2023/10/05 01:48:12;;;;;;;44.53;18.80;;;;;;;21.64;51.92;100600.77;1702236;84;21341;-80
2023/10/05 01:51:17;;;;;;;41.50;17.15;;;;;;;21.85;51.36;100602.11;1702538;84;21341;-80
2023/10/05 01:54:25;;;;;;;40.03;19.45;;;;;;;21.62;51.71;100607.98;1702686;84;21330;-80
2023/10/05 01:57:29;;;;;;;44.03;19.30;;;;;;;21.54;52.07;100608.34;1702294;84;21337;-80
2023/10/05 02:00:38;;;;;;;50.12;20.75;;;;;;;21.52;52.15;100619.42;1702403;82;22626;-80
2023/10/05 02:03:48;;;;;;;51.23;20.15;;;;;;;21.50;51.97;100632.20;1702801;84;21347;-80
2023/10/05 02:06:54;;;;;;;49.00;20.75;;;;;;;21.26;52.65;100642.38;1703480;84;21277;-80
2023/10/05 02:10:03;;;;;;;48.25;21.23;;;;;;;21.12;52.98;100645.91;1703627;84;21338;-80
2023/10/05 02:13:12;;;;;;;56.42;22.42;;;;;;;21.15;52.78;100645.45;1703772;84;21314;-80
2023/10/05 02:16:22;;;;;;;56.08;21.95;;;;;;;21.13;52.79;100636.52;1703610;84;21917;-80
2023/10/05 02:19:30;;;;;;;58.58;23.27;;;;;;;21.07;52.77;100617.97;1701947;84;21349;-80
2023/10/05 02:22:36;;;;;;;65.32;22.87;;;;;;;21.07;52.70;100617.97;1703473;84;21329;-81
2023/10/05 02:25:42;;;;;;;80.25;24.80;;;;;;;20.93;53.04;100607.59;1703304;84;21384;-80
2023/10/05 02:28:47;;;;;;;54.53;23.87;;;;;;;20.74;53.69;100613.45;1702709;84;21962;-80
2023/10/05 02:38:28;;;;;;;43.60;19.70;;;;;;;20.91;53.56;100622.29;1687763;83;21319;-80
2023/10/05 02:41:39;;;;;;;42.17;18.75;;;;;;;21.00;53.20;100614.46;1708578;84;21318;-80
2023/10/05 02:44:46;;;;;;;51.37;19.10;;;;;;;20.98;53.30;100632.45;1771080;81;21314;-80
2023/10/05 02:47:54;;;;;;;41.95;16.55;;;;;;;20.87;53.46;100641.91;1772941;81;21295;-80
2023/10/05 02:51:05;;;;;;;34.83;16.17;;;;;;;20.78;53.49;100650.83;1770041;81;21628;-80
2023/10/05 02:54:10;;;;;;;41.50;16.25;;;;;;;20.85;53.11;100650.20;1742322;82;21310;-80
2023/10/05 02:57:19;;;;;;;42.60;16.50;;;;;;;20.85;52.92;100646.87;1741766;82;21349;-79
2023/10/05 03:00:26;;;;;;;38.33;16.42;;;;;;;20.62;53.38;100647.62;1741314;82;21372;-80
2023/10/05 03:03:34;;;;;;;47.88;16.30;;;;;;;20.50;53.70;100652.80;1742629;82;21399;-79
2023/10/05 03:06:40;;;;;;;36.85;15.72;;;;;;;20.48;53.60;100651.66;1742639;82;21815;-80
2023/10/05 03:09:51;;;;;;;36.05;16.02;;;;;;;20.55;53.35;100664.06;1719539;82;21954;-80
2023/10/05 03:12:59;;;;;;;42.95;16.77;;;;;;;20.47;53.48;100656.03;1741620;82;21341;-80
2023/10/05 03:16:09;;;;;;;58.63;17.40;;;;;;;20.30;53.90;100651.63;1763295;81;21898;-80
2023/10/05 03:19:20;;;;;;;36.83;16.30;;;;;;;20.29;53.92;100649.95;1772747;81;21295;-79
2023/10/05 03:22:25;;;;;;;36.65;14.25;;;;;;;20.25;53.94;100658.42;1753937;81;21297;-80
2023/10/05 03:25:33;;;;;;;34.15;14.47;;;;;;;20.15;54.17;100668.69;1728649;82;21361;-79
2023/10/05 03:28:41;;;;;;;38.23;14.45;;;;;;;20.21;53.88;100669.14;1740776;82;21348;-79
2023/10/05 03:32:13;;;;;;;34.88;14.47;;;;;;;19.97;54.37;100674.22;1755001;81;21307;-79
2023/10/05 03:35:08;;;;;;;34.90;14.90;;;;;;;20.09;53.96;100690.41;1755236;81;21351;-80
2023/10/05 03:38:19;;;;;;;45.43;14.90;;;;;;;20.03;53.83;100688.02;1755366;81;21327;-80
2023/10/05 03:41:26;;;;;;;35.38;15.00;;;;;;;19.86;54.17;100681.38;1755029;81;21374;-79
2023/10/05 03:44:32;;;;;;;34.33;14.13;;;;;;;19.84;54.08;100681.59;1736113;79;21362;-79
2023/10/05 03:47:39;;;;;;;37.88;15.28;;;;;;;19.80;53.92;100681.73;1772671;81;21633;-80
2023/10/05 03:50:45;;;;;;;39.65;15.70;;;;;;;19.81;53.91;100682.61;1772013;81;21322;-80
2023/10/05 03:53:51;;;;;;;35.08;14.80;;;;;;;19.70;54.30;100682.79;1772610;81;21299;-79
2023/10/05 03:57:10;;;;;;;40.40;15.50;;;;;;;19.71;54.20;100682.25;1772514;81;21288;-79
2023/10/05 04:00:31;;;;;;;40.00;14.10;;;;;;;19.37;55.22;100678.88;1771176;81;21952;-79
2023/10/05 04:03:31;;;;;;;31.15;14.87;;;;;;;19.40;55.21;100675.66;1773390;81;21298;-79
2023/10/05 04:06:41;;;;;;;30.20;14.47;;;;;;;19.31;55.63;100677.02;1773154;81;21332;-79
2023/10/05 04:09:46;;;;;;;31.52;13.98;;;;;;;19.31;55.87;100667.30;1773169;81;21603;-79
2023/10/05 04:12:54;;;;;;;32.40;13.95;;;;;;;19.31;56.49;100675.09;1772710;81;22597;-79
2023/10/05 04:15:59;;;;;;;32.65;13.93;;;;;;;19.30;56.88;100680.33;1773455;81;21282;-79
2023/10/05 04:19:10;;;;;;;31.75;14.05;;;;;;;19.30;57.07;100680.33;1773081;81;21314;-79
2023/10/05 04:22:15;;;;;;;30.50;14.83;;;;;;;19.49;56.49;100691.49;1772733;81;21303;-80
2023/10/05 04:25:23;;;;;;;31.42;14.20;;;;;;;19.56;56.11;100688.95;1771032;81;21318;-80
2023/10/05 04:28:33;;;;;;;35.78;14.53;;;;;;;19.65;55.89;100684.02;1772584;81;21338;-79
2023/10/05 04:31:39;;;;;;;33.93;15.03;;;;;;;19.63;55.97;100687.02;1772067;81;21295;-79
2023/10/05 04:34:46;;;;;;;38.92;16.75;;;;;;;19.65;55.92;100702.89;1773082;81;21829;-79
2023/10/05 04:37:54;;;;;;;40.52;15.40;;;;;;;19.66;55.83;100710.14;1772904;81;21857;-80
2023/10/05 04:40:54;;;;;;;37.35;15.20;;;;;;;19.57;55.91;100709.22;1771417;81;21395;-80
2023/10/05 04:43:49;;;;;;;35.30;15.08;;;;;;;19.78;55.58;100719.13;1772198;81;21370;-79
2023/10/05 04:46:55;;;;;;;32.50;14.05;;;;;;;19.76;55.86;100722.66;1772667;81;21913;-80
2023/10/05 04:50:05;;;;;;;34.23;14.83;;;;;;;19.84;55.81;100725.16;1772635;81;21593;-79
2023/10/05 04:53:13;;;;;;;35.23;13.60;;;;;;;20.01;55.71;100719.88;1772772;81;21267;-80
2023/10/05 04:56:28;;;;;;;48.52;17.32;;;;;;;20.12;55.85;100731.08;1772847;81;21833;-79
2023/10/05 05:09:14;;;;;;;22.70;11.53;;;;;;;20.89;55.05;100742.64;1705352;84;21216;-80
2023/10/05 05:12:17;;;;;;;27.35;13.28;;;;;;;21.12;54.31;100746.04;1690173;84;21383;-80
2023/10/05 05:15:10;;;;;;;30.97;11.80;;;;;;;21.36;53.67;100738.70;1701533;83;21323;-80
2023/10/05 05:18:19;;;;;;;24.15;11.75;;;;;;;21.54;53.12;100740.53;1712408;82;21307;-79
2023/10/05 05:21:25;;;;;;;29.72;12.43;;;;;;;21.74;52.53;100740.75;1713773;82;21979;-80
2023/10/05 05:24:31;;;;;;;25.20;11.90;;;;;;;21.91;51.89;100739.81;1725778;82;21323;-81
2023/10/05 05:27:30;;;;;;;26.05;12.37;;;;;;;22.05;51.08;100741.83;1717616;82;21432;-81
2023/10/05 05:30:29;;;;;;;21.77;12.25;;;;;;;22.27;50.13;100746.84;1715482;82;21347;-81
2023/10/05 05:33:17;;;;;;;26.17;11.57;;;;;;;22.33;49.75;100746.70;1726233;82;21301;-81
2023/10/05 05:36:16;;;;;;;39.75;13.00;;;;;;;22.16;50.01;100745.72;1715424;82;21329;-81
2023/10/05 05:39:07;;;;;;;28.62;13.45;;;;;;;21.96;50.41;100753.02;1712515;82;21291;-81
2023/10/05 05:42:06;;;;;;;30.43;12.82;;;;;;;22.07;50.27;100752.75;1708922;82;21299;-82
2023/10/05 05:45:22;;;;;;;37.05;13.58;;;;;;;22.31;49.80;100752.23;1709571;82;21373;-81
2023/10/05 05:48:31;;;;;;;35.85;14.83;;;;;;;22.31;49.79;100742.48;1706440;82;21342;-81
2023/10/05 05:54:50;;;;;;;29.23;14.47;;;;;;;22.06;50.53;100763.01;1738411;81;21834;-80
2023/10/05 05:57:59;;;;;;;25.60;12.68;;;;;;;22.37;49.75;100764.62;1730151;81;21352;-80
2023/10/05 06:01:08;;;;;;;25.80;12.80;;;;;;;22.57;49.36;100762.84;1690614;83;21331;-81
2023/10/05 06:04:13;;;;;;;29.32;11.80;;;;;;;22.83;48.94;100772.63;1686868;84;21325;-81
2023/10/05 06:07:20;;;;;;;22.62;11.45;;;;;;;22.86;48.87;100772.67;1692040;84;21341;-81
2023/10/05 06:10:28;;;;;;;22.42;11.85;;;;;;;23.06;48.55;100768.97;1679104;84;21560;-80
2023/10/05 06:13:36;;;;;;;26.97;12.85;;;;;;;23.11;48.40;100773.25;1675166;84;22493;-81
2023/10/05 06:16:43;;;;;;;34.25;12.33;;;;;;;23.30;48.02;100775.84;1668896;84;21679;-81
2023/10/05 06:19:49;;;;;;;20.65;11.75;;;;;;;23.27;48.02;100779.97;1695541;83;21361;-80
2023/10/05 06:22:56;;;;;;;33.90;11.83;;;;;;;23.42;47.84;100780.26;1697295;83;21358;-81
2023/10/05 06:26:03;;;;;;;29.87;12.07;;;;;;;23.49;47.51;100778.73;1700230;83;21702;-81
2023/10/05 06:29:08;;;;;;;24.52;10.50;;;;;;;23.52;47.35;100787.14;1692322;83;21341;-82
2023/10/05 06:32:14;;;;;;;26.90;11.88;;;;;;;23.46;47.73;100787.04;1704496;83;21318;-81
2023/10/05 06:35:20;;;;;;;29.37;13.03;;;;;;;23.39;47.75;100789.70;1695941;83;21310;-81
2023/10/05 06:38:27;;;;;;;23.10;11.15;;;;;;;23.36;47.77;100790.19;1698802;83;21373;-82
2023/10/05 06:41:34;;;;;;;26.23;12.53;;;;;;;23.45;47.29;100785.36;1702345;83;21310;-81
2023/10/05 06:44:33;;;;;;;26.85;12.98;;;;;;;23.67;46.78;100792.51;1697700;83;21381;-82
2023/10/05 06:47:39;;;;;;;20.57;11.12;;;;;;;23.68;46.86;100798.39;1701885;83;21399;-82
2023/10/05 06:50:47;;;;;;;26.73;10.98;;;;;;;23.85;46.34;100800.34;1701695;83;21389;-81
2023/10/05 06:53:52;;;;;;;30.68;11.38;;;;;;;23.98;46.30;100798.62;1714019;81;21391;-81
2023/10/05 06:56:59;;;;;;;19.87;10.48;;;;;;;23.89;46.16;100799.58;1735877;81;21295;-82
2023/10/05 07:00:11;;;;;;;31.90;12.73;;;;;;;24.01;45.46;100802.31;1733641;81;21300;-82
2023/10/05 07:03:14;;;;;;;17.62;9.38;;;;;;;24.18;45.54;100800.38;1721709;83;22490;-82
2023/10/05 07:06:22;;;;;;;23.25;11.50;;;;;;;24.25;44.62;100802.98;1722685;82;21300;-82
2023/10/05 07:09:29;;;;;;;29.63;11.45;;;;;;;24.44;44.37;100817.02;1724574;82;21330;-81
2023/10/05 07:12:48;;;;;;;17.48;9.25;;;;;;;24.42;44.03;100813.64;1717475;82;21329;-82
2023/10/05 07:16:09;;;;;;;20.02;8.90;;;;;;;24.50;43.56;100816.54;1717637;82;21315;-82
2023/10/05 07:19:16;;;;;;;20.17;9.50;;;;;;;24.53;43.02;100809.60;1691826;83;21326;-81
2023/10/05 07:22:22;;;;;;;28.10;11.57;;;;;;;24.82;42.33;100815.33;1675775;84;21340;-83
2023/10/05 07:25:27;;;;;;;21.50;10.35;;;;;;;24.73;42.29;100822.47;1674884;84;22042;-81
2023/10/05 07:28:34;;;;;;;22.85;11.15;;;;;;;24.90;41.73;100821.05;1671926;83;21308;-82
2023/10/05 07:31:41;;;;;;;18.87;9.60;;;;;;;25.04;41.61;100811.16;1683060;83;21343;-82
2023/10/05 07:34:47;;;;;;;21.93;9.43;;;;;;;25.09;41.00;100814.05;1679559;83;21950;-80
2023/10/05 07:37:53;;;;;;;22.70;10.50;;;;;;;25.03;41.24;100814.20;1680771;84;21347;-81
2023/10/05 07:40:58;;;;;;;21.27;9.93;;;;;;;25.11;40.88;100814.62;1682117;83;21354;-82
2023/10/05 07:44:07;;;;;;;18.70;7.85;;;;;;;25.42;40.83;100823.41;1683962;83;21327;-82
2023/10/05 07:47:13;;;;;;;21.25;9.43;;;;;;;25.47;39.76;100813.11;1682710;84;21966;-82
2023/10/05 07:50:19;;;;;;;28.83;10.45;;;;;;;25.64;39.25;100810.22;1684167;84;21314;-82
2023/10/05 07:53:25;;;;;;;20.75;9.38;;;;;;;25.67;39.33;100811.62;1681746;83;21934;-81
2023/10/05 07:56:32;;;;;;;21.65;7.62;;;;;;;25.83;39.06;100818.25;1685658;84;21317;-82
2023/10/05 07:59:40;;;;;;;21.00;7.83;;;;;;;25.72;39.14;100820.08;1686117;84;21320;-82
2023/10/05 08:02:47;;;;;;;18.05;8.18;;;;;;;25.71;38.41;100824.84;1650643;85;21371;-82
2023/10/05 08:05:54;;;;;;;21.40;8.45;;;;;;;25.62;38.39;100824.19;1654628;85;21902;-82
2023/10/05 08:09:04;;;;;;;19.65;8.38;;;;;;;25.61;38.10;100826.70;1654797;85;21319;-82
2023/10/05 08:12:09;;;;;;;24.27;7.58;;;;;;;25.63;38.15;100818.31;1652429;85;21350;-82
2023/10/05 08:15:18;;;;;;;17.42;8.40;;;;;;;25.59;37.20;100825.55;1652938;85;21371;-81
2023/10/05 08:18:23;;;;;;;25.08;9.38;;;;;;;25.46;37.16;100821.78;1632249;86;21672;-82
2023/10/05 08:21:28;;;;;;;29.82;9.33;;;;;;;25.28;37.34;100820.17;1625716;86;21310;-81
2023/10/05 08:24:35;;;;;;;19.67;9.58;;;;;;;25.10;37.47;100828.89;1621360;87;21328;-82
2023/10/05 08:27:42;;;;;;;27.10;10.10;;;;;;;25.14;37.04;100820.27;1619986;87;21355;-81
2023/10/05 08:31:04;;;;;;;28.38;11.83;;;;;;;24.91;37.12;100819.38;1585458;86;33017;-81
2023/10/05 08:34:03;;;;;;;22.48;9.95;;;;;;;24.95;37.43;100824.75;1578472;89;22017;-83
2023/10/05 08:37:08;;;;;;;32.63;10.48;;;;;;;25.11;37.09;100827.22;1556663;90;21280;-81
2023/10/05 08:43:50;;;;;;;19.55;8.83;;;;;;;25.07;36.04;100819.05;1560070;89;21268;-81
2023/10/05 08:46:59;;;;;;;25.02;8.05;;;;;;;25.17;36.75;100825.33;1556009;89;22291;-82
2023/10/05 08:50:07;;;;;;;20.70;8.23;;;;;;;25.19;36.06;100818.94;1534961;91;21237;-82
2023/10/05 08:53:15;;;;;;;25.95;8.88;;;;;;;25.26;35.62;100819.56;1566525;90;21340;-82
2023/10/05 08:56:25;;;;;;;27.58;8.28;;;;;;;25.41;35.10;100828.73;1584205;89;21393;-83
2023/10/05 08:59:30;;;;;;;14.78;7.12;;;;;;;25.48;34.98;100820.95;1582947;89;22583;-81
2023/10/05 09:02:40;;;;;;;22.32;8.18;;;;;;;25.61;34.62;100828.10;1584282;89;21386;-82
2023/10/05 09:06:20;;;;;;;16.07;4.53;;;;;;;25.60;35.05;100828.66;1552872;91;21272;-82
2023/10/05 09:09:57;;;;;;;15.95;4.45;;;;;;;25.58;34.75;100818.81;1562315;90;21244;-81
2023/10/05 09:13:08;;;;;;;12.63;3.33;;;;;;;24.82;35.30;100818.69;1553257;90;21232;-81
2023/10/05 09:16:15;;;;;;;14.28;4.00;;;;;;;25.45;34.10;100820.06;1582203;89;22355;-83
2023/10/05 09:19:34;;;;;;;12.58;3.15;;;;;;;25.35;33.67;100824.16;1580625;89;21217;-81
2023/10/05 09:22:49;;;;;;;8.63;3.40;;;;;;;25.33;33.70;100814.62;1581758;89;21351;-81
2023/10/05 09:25:54;;;;;;;6.53;2.77;;;;;;;25.39;33.67;100809.37;1570405;90;21236;-81
2023/10/05 09:29:12;;;;;;;6.80;3.08;;;;;;;25.50;33.21;100804.72;1559293;91;21390;-82
2023/10/05 09:32:11;;;;;;;12.85;3.83;;;;;;;25.53;33.23;100793.00;1588166;89;22001;-82
2023/10/05 09:35:22;;;;;;;13.45;3.05;;;;;;;25.64;32.72;100804.62;1581836;90;21908;-81
2023/10/05 09:38:27;;;;;;;16.20;3.08;;;;;;;25.62;32.53;100802.62;1538933;92;21962;-82
2023/10/05 09:41:35;;;;;;;12.93;2.62;;;;;;;25.67;32.38;100799.02;1549605;92;21357;-82
2023/10/05 09:44:42;;;;;;;9.80;2.80;;;;;;;25.69;32.59;100793.46;1550058;92;21239;-83
2023/10/05 09:47:48;;;;;;;7.50;2.77;;;;;;;25.33;32.38;100799.78;1547287;92;21268;-83
2023/10/05 09:50:59;;;;;;;7.40;2.70;;;;;;;25.40;32.75;100796.20;1541732;92;21246;-83
2023/10/05 09:54:08;;;;;;;12.33;2.80;;;;;;;25.38;32.00;100799.84;1576791;90;21332;-83
2023/10/05 09:57:11;;;;;;;11.08;2.98;;;;;;;25.41;32.39;100790.92;1571117;91;21255;-82
2023/10/05 10:00:30;;;;;;;6.92;2.60;;;;;;;25.51;32.44;100794.39;1572989;89;21381;-84
2023/10/05 10:03:43;;;;;;;14.25;3.08;;;;;;;25.72;31.72;100793.47;1583722;89;21336;-83
2023/10/05 10:06:53;;;;;;;9.93;2.77;;;;;;;25.71;31.25;100788.42;1576195;90;21272;-82
2023/10/05 10:10:04;;;;;;;9.73;2.62;;;;;;;25.74;31.25;100794.91;1569230;90;21377;-83
2023/10/05 10:13:12;;;;;;;12.63;2.77;;;;;;;25.84;31.12;100798.95;1576670;89;21247;-83
2023/10/05 10:16:26;;;;;;;6.97;2.58;;;;;;;25.97;30.87;100781.67;1576387;90;21247;-83
2023/10/05 10:19:28;;;;;;;15.20;3.02;;;;;;;25.94;30.31;100775.22;1585399;89;21243;-83
2023/10/05 10:22:39;;;;;;;11.55;2.35;;;;;;;25.89;30.28;100783.59;1589482;88;21372;-82
2023/10/05 10:25:45;;;;;;;8.08;2.70;;;;;;;25.91;30.38;100784.15;1593363;87;21988;-83
2023/10/05 10:32:41;;;;;;;5.70;2.85;;;;;;;26.08;30.00;100768.61;1644879;87;21950;-83
2023/10/05 10:35:48;;;;;;;8.23;2.52;;;;;;;26.13;30.06;100770.89;1580993;90;21949;-81
2023/10/05 10:39:00;;;;;;;4.95;2.67;;;;;;;26.10;29.95;100776.19;1591838;90;21368;-83
2023/10/05 10:42:18;;;;;;;5.33;3.00;;;;;;;25.97;30.01;100776.94;1595403;90;21407;-82
2023/10/05 10:45:29;;;;;;;10.20;2.72;;;;;;;25.90;30.18;100774.06;1582224;89;21262;-80
2023/10/05 10:48:41;;;;;;;7.75;2.62;;;;;;;25.84;29.77;100768.13;1570374;90;21231;-82
2023/10/05 10:51:53;;;;;;;7.78;3.08;;;;;;;25.89;29.59;100766.77;1569568;89;21263;-82
2023/10/05 10:55:00;;;;;;;6.20;2.10;;;;;;;26.05;29.54;100762.97;1578601;89;21437;-82
2023/10/05 10:58:12;;;;;;;8.43;2.60;;;;;;;26.23;29.37;100763.11;1602558;88;21918;-82
2023/10/05 11:01:22;;;;;;;6.10;2.77;;;;;;;26.33;29.14;100762.34;1617240;87;22009;-82
2023/10/05 11:04:26;;;;;;;9.28;3.00;;;;;;;26.44;28.79;100778.14;1627649;86;21358;-82
2023/10/05 11:07:34;;;;;;;4.83;2.60;;;;;;;26.41;28.46;100775.86;1603035;89;21223;-83
2023/10/05 11:10:40;;;;;;;3.67;1.98;;;;;;;26.40;28.42;100774.18;1610401;86;21245;-83
2023/10/05 11:13:56;;;;;;;10.93;2.25;;;;;;;26.02;28.41;100773.87;1841367;76;22227;-81
2023/10/05 11:17:11;;;;;;;11.48;3.05;;;;;;;25.84;28.55;100781.58;1824920;77;22259;-82
2023/10/05 11:20:20;;;;;;;9.83;2.55;;;;;;;25.80;28.86;100768.38;1814795;79;21316;-81
2023/10/05 11:23:25;;;;;;;5.93;2.33;;;;;;;25.82;28.34;100761.94;1814321;77;21296;-82
2023/10/05 11:27:05;;;;;;;12.53;3.02;;;;;;;25.91;28.11;100769.58;1822597;77;21507;-82
2023/10/05 11:29:55;;;;;;;5.92;2.55;;;;;;;25.95;28.03;100756.73;1759905;80;21269;-83
2023/10/05 11:33:05;;;;;;;9.28;2.80;;;;;;;25.93;28.09;100758.13;1786093;78;22481;-82
2023/10/05 11:36:18;;;;;;;10.15;2.42;;;;;;;25.93;27.50;100751.12;1775243;79;21318;-82
2023/10/05 11:39:26;;;;;;;9.40;2.40;;;;;;;25.95;27.64;100747.48;1777359;79;21310;-82
2023/10/05 11:42:36;;;;;;;10.40;2.47;;;;;;;25.96;27.74;100741.59;1750898;80;21359;-82
2023/10/05 11:45:39;;;;;;;17.50;2.42;;;;;;;26.04;27.90;100738.87;1773450;80;21930;-82
2023/10/05 11:48:48;;;;;;;4.22;2.40;;;;;;;26.08;27.62;100744.23;1784572;80;21339;-82
2023/10/05 11:51:59;;;;;;;4.92;2.42;;;;;;;25.99;27.62;100740.23;1764684;80;21310;-82
2023/10/05 11:55:05;;;;;;;8.18;2.67;;;;;;;25.83;27.37;100743.48;1754405;81;21335;-83
2023/10/05 11:58:13;;;;;;;7.17;2.98;;;;;;;25.65;27.69;100744.67;1757644;80;21962;-82
2023/10/05 12:01:24;;;;;;;5.92;2.47;;;;;;;25.63;27.69;100741.28;1745858;80;21315;-82
2023/10/05 12:04:31;;;;;;;4.28;2.52;;;;;;;25.68;27.90;100728.72;1771234;80;21271;-83
2023/10/05 12:07:41;;;;;;;9.65;2.08;;;;;;;25.60;27.72;100716.62;1767259;80;21320;-83
2023/10/05 12:10:45;;;;;;;7.92;2.20;;;;;;;25.54;27.82;100717.66;1763394;80;21382;-82
2023/10/05 12:13:56;;;;;;;4.90;2.33;;;;;;;25.60;27.30;100710.18;1773665;79;21290;-81
2023/10/05 12:17:13;;;;;;;7.33;2.75;;;;;;;25.74;27.21;100716.47;1777026;79;21300;-81
2023/10/05 12:20:24;;;;;;;9.78;2.37;;;;;;;25.83;27.22;100714.58;1772686;79;21335;-82
2023/10/05 12:23:29;;;;;;;7.58;2.30;;;;;;;25.86;27.18;100709.86;1780866;79;21319;-82
2023/10/05 12:26:35;;;;;;;7.37;2.45;;;;;;;25.80;27.49;100710.38;1767559;81;21334;-80
2023/10/05 12:29:45;;;;;;;8.83;3.00;;;;;;;25.85;27.62;100693.60;1777317;79;21328;-82
2023/10/05 12:33:10;;;;;;;6.83;2.85;;;;;;;25.84;27.63;100703.69;1770246;79;21315;-83
2023/10/05 12:36:16;;;;;;;7.55;3.20;;;;;;;25.74;27.66;100708.63;1771029;81;21312;-82
2023/10/05 12:39:40;;;;;;;8.88;2.40;;;;;;;25.62;27.74;100703.19;1770158;79;21926;-81
2023/10/05 12:43:00;;;;;;;5.40;2.58;;;;;;;25.69;27.82;100699.62;1782714;79;21839;-81
2023/10/05 12:46:12;;;;;;;6.55;2.27;;;;;;;25.75;27.90;100701.90;1791084;79;21319;-81
2023/10/05 12:49:11;;;;;;;7.17;2.25;;;;;;;25.84;27.93;100696.69;1798378;79;21378;-81
2023/10/05 12:52:22;;;;;;;5.50;2.52;;;;;;;25.89;27.85;100691.95;1781156;79;21269;-81
2023/10/05 12:55:33;;;;;;;9.70;3.55;;;;;;;25.79;27.71;100680.67;1765489;81;21362;-81
2023/10/05 12:58:38;;;;;;;9.40;2.60;;;;;;;25.74;27.47;100680.61;1765353;81;21367;-81
2023/10/05 13:01:51;;;;;;;9.40;3.05;;;;;;;25.65;27.45;100678.85;1766021;81;21776;-82
2023/10/05 13:04:57;;;;;;;4.25;2.55;;;;;;;25.72;27.43;100687.86;1731662;82;21287;-82
2023/10/05 13:08:03;;;;;;;7.05;2.85;;;;;;;25.56;27.67;100686.05;1799767;79;21262;-82
2023/10/05 13:11:14;;;;;;;8.48;2.65;;;;;;;25.50;27.75;100681.50;1800579;79;21265;-82
2023/10/05 13:14:20;;;;;;;7.62;2.70;;;;;;;25.57;27.76;100676.53;1800592;79;21833;-82
2023/10/05 13:17:25;;;;;;;11.63;2.30;;;;;;;25.49;27.81;100671.41;1805465;79;21291;-82
2023/10/05 13:20:33;;;;;;;13.10;2.62;;;;;;;25.55;27.60;100670.37;1804563;79;21570;-82
2023/10/05 13:23:39;;;;;;;4.72;2.40;;;;;;;25.42;27.91;100670.25;1802658;79;21909;-82
2023/10/05 13:26:52;;;;;;;9.75;2.25;;;;;;;25.36;28.11;100669.92;1734585;82;21669;-82
2023/10/05 13:29:58;;;;;;;9.90;2.90;;;;;;;25.34;28.14;100665.69;1730795;82;21317;-82
2023/10/05 13:33:08;;;;;;;16.60;3.10;;;;;;;25.25;28.18;100669.52;1740734;82;21328;-82
2023/10/05 13:36:12;;;;;;;9.13;2.55;;;;;;;25.23;28.09;100662.79;1766808;81;21309;-82
2023/10/05 13:39:22;;;;;;;6.78;2.83;;;;;;;25.12;28.32;100662.38;1766336;81;21325;-82
2023/10/05 13:42:27;;;;;;;11.57;2.67;;;;;;;25.07;28.51;100662.85;1766094;81;21325;-82
2023/10/05 13:45:33;;;;;;;9.10;3.10;;;;;;;24.96;29.01;100671.70;1750652;81;21357;-83
2023/10/05 13:48:41;;;;;;;7.87;2.72;;;;;;;24.93;29.03;100675.02;1741001;82;21293;-82
2023/10/05 13:51:51;;;;;;;13.13;2.75;;;;;;;24.84;29.08;100664.00;1767926;81;21874;-82
2023/10/05 13:54:55;;;;;;;6.87;2.85;;;;;;;24.83;29.14;100668.75;1739671;82;21985;-82
2023/10/05 13:58:00;;;;;;;13.78;2.70;;;;;;;24.87;29.19;100661.53;1768124;81;21308;-82
2023/10/05 14:01:10;;;;;;;16.40;3.02;;;;;;;24.94;29.15;100655.19;1766745;81;22473;-82
2023/10/05 14:04:20;;;;;;;14.05;2.70;;;;;;;24.85;29.31;100650.33;1767909;81;21289;-82
2023/10/05 14:07:27;;;;;;;17.85;3.00;;;;;;;24.82;29.24;100647.48;1768158;81;21332;-82
2023/10/05 14:10:33;;;;;;;8.23;3.12;;;;;;;24.81;29.31;100644.96;1768291;81;22611;-82
2023/10/05 14:13:42;;;;;;;7.92;2.72;;;;;;;24.83;29.21;100640.78;1766701;81;21304;-83
2023/10/05 14:17:00;;;;;;;16.85;3.98;;;;;;;24.84;29.24;100634.63;1765723;81;22236;-83
2023/10/05 14:20:04;;;;;;;10.40;2.98;;;;;;;24.87;29.25;100631.31;1768327;81;21257;-82
2023/10/05 14:23:12;;;;;;;8.70;2.72;;;;;;;24.73;29.25;100630.88;1781239;79;21275;-82
2023/10/05 14:26:19;;;;;;;5.83;2.35;;;;;;;24.72;29.49;100635.62;1724953;83;21312;-83
2023/10/05 14:29:34;;;;;;;12.88;3.15;;;;;;;24.68;29.38;100640.05;1751924;81;21280;-83
2023/10/05 14:32:36;;;;;;;11.48;5.22;;;;;;;24.66;29.56;100645.63;1739067;81;21287;-83
2023/10/05 14:35:32;;;;;;;13.08;2.80;;;;;;;24.55;29.62;100646.59;1732059;82;21351;-82
2023/10/05 14:38:39;;;;;;;14.23;3.60;;;;;;;24.42;29.67;100649.25;1732735;82;21316;-82
2023/10/05 14:41:45;;;;;;;12.37;3.25;;;;;;;24.31;29.92;100650.17;1717351;82;21259;-82
2023/10/05 14:44:51;;;;;;;12.50;2.77;;;;;;;24.29;29.97;100646.80;1731996;81;21296;-82
2023/10/05 14:47:58;;;;;;;9.45;3.00;;;;;;;24.22;30.11;100649.22;1731179;82;21328;-83
2023/10/05 14:51:15;;;;;;;10.78;3.02;;;;;;;24.19;30.20;100654.50;1731223;82;21320;-82